Stones Corner, Missouri
Current Conditions -  °F | °C
As of 9:53 PM on Thursday 18 Dec 2014 (Local Time) from KJLN Reporting Station
Haze Haze  
Wind Chill: 33°   Ceiling: 400
Heat Index: 37°   Visibility: 6mi
Dew Point: 35°   Wind: 5mph
Humidity: 93%   Direction: 20°NNE
Pressure: 30.24"   Gusts: NA
Location:  37.1074°N, 94.5218°W
Report Text: KJLN 190353Z AUTO 02004KT 6SM BR OVC004 03/02 A3024 RMK AO2 SLP244 T00280017
Loading
Personal Weather Stations






























Interactive Weather Map New forecast layout! Learn more

10-Day Weather Forecast

Advertisements
Track Severe Weather on mobile